createdAt,value
2023-11-13T00:00:31.978Z,8.94
2023-11-13T00:02:59.198Z,8.88
2023-11-13T00:05:26.388Z,8.97
2023-11-13T00:07:56.630Z,8.89
2023-11-13T00:10:24.594Z,8.82
2023-11-13T00:12:51.928Z,8.85
2023-11-13T00:15:19.163Z,8.75
2023-11-13T00:17:46.418Z,8.74
2023-11-13T00:20:13.683Z,8.68
2023-11-13T00:22:40.755Z,8.67
2023-11-13T00:25:08.940Z,8.57
2023-11-13T00:27:36.169Z,8.33
2023-11-13T00:30:04.198Z,8.53
2023-11-13T00:32:32.181Z,8.47
2023-11-13T00:34:59.726Z,8.55
2023-11-13T00:37:27.065Z,8.55
2023-11-13T00:39:54.880Z,8.52
2023-11-13T00:42:22.079Z,8.53
2023-11-13T00:44:50.492Z,8.56
2023-11-13T00:47:17.681Z,8.52
2023-11-13T00:49:46.042Z,8.22
2023-11-13T00:52:13.357Z,8.45
2023-11-13T00:54:40.585Z,8.31
2023-11-13T00:57:08.580Z,8.42
2023-11-13T00:59:36.455Z,8.39
2023-11-13T01:02:04.426Z,8.25
2023-11-13T01:04:31.922Z,8.19
2023-11-13T01:06:59.145Z,8.07
2023-11-13T01:09:26.582Z,7.95
2023-11-13T01:11:54.263Z,7.97
2023-11-13T01:14:21.765Z,7.82
2023-11-13T01:16:49.231Z,7.89
2023-11-13T01:19:16.448Z,7.83
2023-11-13T01:21:43.581Z,7.84
2023-11-13T01:24:10.873Z,7.75
2023-11-13T01:26:38.153Z,7.78
2023-11-13T01:29:05.343Z,7.72
2023-11-13T01:31:32.457Z,7.78
2023-11-13T01:33:59.704Z,7.91
2023-11-13T01:36:28.103Z,7.83
2023-11-13T01:38:55.265Z,7.89
2023-11-13T01:41:22.335Z,7.75
2023-11-13T01:43:49.536Z,7.93
2023-11-13T01:46:18.726Z,7.93
2023-11-13T01:48:46.446Z,7.92
2023-11-13T01:51:14.816Z,7.85
2023-11-13T01:53:42.199Z,7.84
2023-11-13T01:56:09.429Z,7.89
2023-11-13T01:58:36.609Z,7.87
2023-11-13T02:01:04.124Z,7.73
2023-11-13T02:03:35.660Z,7.78
2023-11-13T02:06:02.935Z,7.32
2023-11-13T02:08:30.109Z,7.69
2023-11-13T02:10:57.395Z,7.60
2023-11-13T02:13:26.143Z,7.46
2023-11-13T02:15:53.441Z,7.44
2023-11-13T02:18:20.886Z,7.54
2023-11-13T02:20:48.459Z,7.17
2023-11-13T02:23:16.753Z,7.47
2023-11-13T02:25:50.703Z,7.42
2023-11-13T02:28:18.188Z,7.55
2023-11-13T02:30:45.653Z,7.58
2023-11-13T02:33:12.922Z,7.55
2023-11-13T02:35:40.279Z,7.55
2023-11-13T02:38:07.587Z,7.53
2023-11-13T02:40:34.869Z,7.61
2023-11-13T02:43:02.004Z,7.59
2023-11-13T02:45:29.366Z,7.58
2023-11-13T02:47:57.207Z,7.56
2023-11-13T02:50:25.640Z,7.43
2023-11-13T02:52:52.851Z,7.44
2023-11-13T02:55:20.040Z,7.42
2023-11-13T02:57:47.323Z,7.42
2023-11-13T03:00:15.025Z,7.29
2023-11-13T03:02:42.156Z,7.35
2023-11-13T03:05:10.046Z,7.35
2023-11-13T03:07:37.720Z,7.33
2023-11-13T03:10:06.794Z,7.18
2023-11-13T03:12:34.059Z,7.15
2023-11-13T03:15:02.048Z,7.17
2023-11-13T03:17:31.772Z,7.16
2023-11-13T03:19:58.948Z,7.19
2023-11-13T03:22:26.486Z,7.17
2023-11-13T03:24:53.748Z,7.09
2023-11-13T03:27:20.905Z,7.10
2023-11-13T03:29:48.221Z,7.10
2023-11-13T03:32:15.664Z,7.11
2023-11-13T03:34:42.844Z,7.09
2023-11-13T03:37:09.974Z,7.04
2023-11-13T03:39:37.753Z,7.07
2023-11-13T03:42:05.216Z,7.07
2023-11-13T03:44:32.415Z,7.12
2023-11-13T03:46:59.614Z,7.07
2023-11-13T03:49:26.828Z,7.18
2023-11-13T03:51:55.287Z,7.21
2023-11-13T03:54:23.826Z,7.24
2023-11-13T03:56:51.381Z,7.17
2023-11-13T03:59:19.796Z,7.14
2023-11-13T04:01:50.285Z,7.24
2023-11-13T04:04:19.491Z,7.25
2023-11-13T04:06:46.784Z,7.27
2023-11-13T04:09:14.188Z,7.22
2023-11-13T04:11:41.395Z,7.18
2023-11-13T04:14:08.582Z,7.13
2023-11-13T04:16:35.892Z,7.14
2023-11-13T04:19:04.134Z,7.04
2023-11-13T04:21:33.152Z,7.03
2023-11-13T04:24:00.911Z,7.08
2023-11-13T04:26:28.668Z,7.08
2023-11-13T04:28:55.966Z,6.99
2023-11-13T04:31:23.645Z,6.99
2023-11-13T04:33:50.984Z,6.99
2023-11-13T04:36:18.450Z,6.91
2023-11-13T04:38:45.806Z,6.91
2023-11-13T04:41:16.890Z,6.81
2023-11-13T04:43:45.304Z,6.79
2023-11-13T04:46:14.298Z,6.76
2023-11-13T04:48:42.224Z,6.63
2023-11-13T04:51:09.698Z,6.57
2023-11-13T04:53:37.225Z,6.62
2023-11-13T04:56:04.668Z,6.54
2023-11-13T04:58:33.804Z,6.57
2023-11-13T05:01:01.134Z,6.54
2023-11-13T05:03:28.514Z,6.58
2023-11-13T05:05:55.796Z,6.53
2023-11-13T05:08:22.836Z,6.55
2023-11-13T05:10:50.343Z,6.47
2023-11-13T05:13:17.593Z,6.55
2023-11-13T05:15:44.781Z,6.51
2023-11-13T05:18:12.290Z,6.51
2023-11-13T05:20:40.948Z,6.44
2023-11-13T05:23:08.087Z,6.43
2023-11-13T05:25:35.418Z,6.57
2023-11-13T05:28:02.847Z,6.57
2023-11-13T05:30:30.071Z,6.65
2023-11-13T05:32:57.484Z,6.68
2023-11-13T05:35:25.098Z,6.60
2023-11-13T05:37:52.219Z,6.45
2023-11-13T05:40:20.753Z,6.73
2023-11-13T05:42:48.216Z,6.58
2023-11-13T05:45:16.253Z,6.78
2023-11-13T05:47:45.806Z,6.76
2023-11-13T05:50:13.149Z,6.69
2023-11-13T05:52:41.013Z,6.80
2023-11-13T05:55:09.996Z,6.81
2023-11-13T05:57:37.335Z,6.89
2023-11-13T06:00:05.729Z,6.89
2023-11-13T06:02:40.083Z,6.97
2023-11-13T06:05:07.459Z,7.00
2023-11-13T06:07:35.074Z,7.00
2023-11-13T06:10:02.488Z,6.77
2023-11-13T06:12:30.963Z,-143.59
2023-11-13T06:14:58.146Z,-143.59
2023-11-13T06:17:26.706Z,-143.59
2023-11-13T06:19:54.765Z,-143.59
2023-11-13T06:22:22.399Z,-143.59
2023-11-13T06:24:49.563Z,-143.59
2023-11-13T06:27:16.808Z,-143.59
2023-11-13T06:29:43.986Z,-143.59
2023-11-13T06:32:11.581Z,-143.59
2023-11-13T06:34:38.920Z,-143.59
2023-11-13T06:37:06.044Z,-143.59
2023-11-13T06:39:33.815Z,-143.59
2023-11-13T06:42:00.947Z,-143.59
2023-11-13T06:44:28.195Z,-143.59
2023-11-13T06:46:55.453Z,-143.59
2023-11-13T06:49:23.074Z,-143.59
2023-11-13T06:51:50.555Z,-143.59
2023-11-13T06:54:17.797Z,-143.59
2023-11-13T06:56:45.106Z,-143.59
2023-11-13T06:59:12.565Z,-143.59
2023-11-13T07:01:43.635Z,-143.59
2023-11-13T07:04:11.552Z,-143.59
2023-11-13T07:06:42.358Z,-143.59
2023-11-13T07:09:12.359Z,-143.59
2023-11-13T07:11:49.161Z,-143.59
2023-11-13T07:14:17.010Z,-143.59
2023-11-13T07:16:44.962Z,-143.59
2023-11-13T07:19:15.550Z,-143.59
2023-11-13T07:21:43.089Z,-143.59
2023-11-13T07:24:10.777Z,-143.59
2023-11-13T07:26:38.334Z,-143.59
2023-11-13T07:29:05.662Z,-143.59
2023-11-13T07:31:33.171Z,-143.59
2023-11-13T07:34:00.513Z,-143.59
2023-11-13T07:36:28.056Z,-143.59
2023-11-13T07:38:55.421Z,-143.59
2023-11-13T07:41:22.932Z,-143.59
2023-11-13T07:43:50.909Z,-143.59
2023-11-13T07:46:19.824Z,-143.59
2023-11-13T07:48:48.081Z,-143.59
2023-11-13T07:51:15.332Z,-143.59
2023-11-13T07:53:43.557Z,-143.59
2023-11-13T07:56:12.714Z,-143.59
2023-11-13T07:58:40.046Z,-143.59
2023-11-13T08:01:07.679Z,-143.59
2023-11-13T08:03:35.023Z,-143.59
2023-11-13T08:06:02.203Z,-143.59
2023-11-13T08:08:29.343Z,-143.59
2023-11-13T08:10:57.697Z,-143.59
2023-11-13T08:13:25.668Z,-143.59
2023-11-13T08:15:53.917Z,-143.59
2023-11-13T08:18:21.191Z,-143.59
2023-11-13T08:20:48.517Z,-143.59
2023-11-13T08:23:16.685Z,-143.59
2023-11-13T08:25:49.730Z,-143.59
2023-11-13T08:28:17.225Z,-143.59
2023-11-13T08:30:45.769Z,-143.59
2023-11-13T08:33:14.314Z,-143.59
2023-11-13T08:35:43.455Z,-143.59
2023-11-13T08:38:12.828Z,-143.59
2023-11-13T08:40:40.322Z,-143.59
2023-11-13T08:43:12.567Z,-143.59
2023-11-13T08:45:54.699Z,-143.59
2023-11-13T08:48:28.060Z,-143.59
2023-11-13T08:50:55.227Z,-143.59
2023-11-13T08:53:22.509Z,-143.59
2023-11-13T08:55:49.752Z,-143.59
2023-11-13T08:58:16.916Z,-143.59
2023-11-13T09:00:45.354Z,-143.59
2023-11-13T09:03:13.351Z,-143.59
2023-11-13T09:05:40.551Z,-143.59
2023-11-13T09:08:09.818Z,-143.59
2023-11-13T09:10:37.600Z,-143.59
2023-11-13T09:13:06.154Z,-143.59
2023-11-13T09:15:34.385Z,-143.59
2023-11-13T09:18:07.436Z,-143.59
2023-11-13T09:20:36.375Z,-143.59
2023-11-13T09:23:07.534Z,-143.59
2023-11-13T09:25:35.641Z,-143.59
2023-11-13T09:28:02.907Z,-143.59
2023-11-13T09:30:32.041Z,-143.59
2023-11-13T09:33:01.132Z,-143.59
2023-11-13T09:35:30.574Z,-143.59
2023-11-13T09:37:59.924Z,-143.59
2023-11-13T09:40:36.010Z,-143.59
2023-11-13T09:43:08.759Z,-143.59
2023-11-13T09:45:38.619Z,-143.59
2023-11-13T09:48:09.331Z,-143.59
2023-11-13T09:50:41.150Z,-143.59
2023-11-13T09:53:09.750Z,-143.59
2023-11-13T09:55:42.639Z,-143.59
2023-11-13T09:58:13.481Z,-143.59
2023-11-13T10:00:42.140Z,-143.59
2023-11-13T10:03:16.361Z,-143.59
2023-11-13T10:05:44.965Z,-143.59
2023-11-13T10:08:13.076Z,-143.59
2023-11-13T10:10:44.810Z,-143.59
2023-11-13T10:13:14.537Z,-143.59
2023-11-13T10:15:46.135Z,-143.59
2023-11-13T10:18:14.772Z,-143.59
2023-11-13T10:20:48.270Z,-143.59
2023-11-13T10:23:18.035Z,-143.59
2023-11-13T10:25:57.529Z,-143.59
2023-11-13T10:28:36.148Z,-143.59
2023-11-13T10:31:06.138Z,-143.59
2023-11-13T10:33:33.609Z,-143.59
2023-11-13T10:36:06.412Z,-143.59
2023-11-13T10:38:48.778Z,-143.59
2023-11-13T10:41:31.043Z,-143.59
2023-11-13T10:43:58.552Z,-143.59
2023-11-13T10:46:30.718Z,-143.59
2023-11-13T10:48:59.763Z,-143.59
2023-11-13T10:51:28.893Z,-143.59
2023-11-13T10:53:57.029Z,-143.59
2023-11-13T10:56:26.407Z,-143.59
2023-11-13T10:58:54.875Z,-143.59
2023-11-13T11:01:30.283Z,-143.59
2023-11-13T11:04:06.804Z,-143.59
2023-11-13T11:06:40.782Z,-143.59
2023-11-13T11:09:13.830Z,-143.59
2023-11-13T11:11:41.963Z,-143.59
2023-11-13T11:14:17.275Z,-143.59
2023-11-13T11:16:49.982Z,-143.59
2023-11-13T11:19:20.408Z,-143.59
2023-11-13T11:22:01.585Z,-143.59
2023-11-13T11:24:48.323Z,-143.59
2023-11-13T11:27:45.565Z,-143.59
2023-11-13T11:30:18.985Z,-143.59
2023-11-13T11:32:58.605Z,-143.59
2023-11-13T11:35:30.923Z,-143.59
2023-11-13T11:38:16.611Z,-143.59
2023-11-13T11:40:46.236Z,-143.59
2023-11-13T11:43:19.681Z,-143.59
2023-11-13T11:45:52.870Z,-143.59
2023-11-13T11:48:22.321Z,-143.59
2023-11-13T11:50:59.096Z,-143.59
2023-11-13T11:53:27.939Z,-143.59
2023-11-13T11:55:55.242Z,-143.59
2023-11-13T11:58:22.585Z,-143.59
2023-11-13T12:00:49.902Z,-143.59
2023-11-13T12:03:17.201Z,-143.59
2023-11-13T12:05:44.532Z,-143.59
2023-11-13T12:08:14.501Z,-143.59
2023-11-13T12:10:44.168Z,-143.59
2023-11-13T12:13:11.653Z,-143.59
2023-11-13T12:15:38.834Z,-143.59
2023-11-13T12:18:06.627Z,-143.59
2023-11-13T12:20:34.455Z,-143.59
2023-11-13T12:23:01.600Z,-143.59
2023-11-13T12:25:28.863Z,-143.59
2023-11-13T12:27:57.081Z,-143.59
2023-11-13T12:30:28.252Z,-143.59
2023-11-13T12:32:56.586Z,-143.59
2023-11-13T12:35:24.269Z,-143.59
2023-11-13T12:37:53.557Z,-143.59
2023-11-13T12:40:22.686Z,-143.59
2023-11-13T12:42:51.015Z,-143.59
2023-11-13T12:45:20.330Z,-143.59
2023-11-13T12:47:49.606Z,-143.59
2023-11-13T12:50:21.127Z,-143.59
2023-11-13T12:52:52.333Z,-143.59
2023-11-13T12:55:21.532Z,-143.59
2023-11-13T12:57:51.095Z,-143.59
2023-11-13T13:00:21.282Z,-143.59
2023-11-13T13:02:51.586Z,-143.59
2023-11-13T13:05:29.171Z,-143.59
2023-11-13T13:08:03.096Z,-143.59
2023-11-13T13:10:35.405Z,-143.59
2023-11-13T13:13:06.394Z,-143.59
2023-11-13T13:15:34.279Z,-143.59
2023-11-13T13:18:04.433Z,-143.59
2023-11-13T13:20:32.377Z,-143.59
2023-11-13T13:23:00.937Z,-143.59
2023-11-13T13:25:31.390Z,-143.59
2023-11-13T13:28:06.757Z,-143.59
2023-11-13T13:30:37.052Z,-143.59
2023-11-13T13:33:11.315Z,-143.59
2023-11-13T13:35:40.459Z,-143.59
2023-11-13T13:38:08.173Z,-143.59
2023-11-13T13:40:38.712Z,-143.59
2023-11-13T13:43:07.955Z,-143.59
2023-11-13T13:45:35.581Z,-143.59
2023-11-13T13:48:03.251Z,-143.59
2023-11-13T13:50:34.164Z,-143.59
2023-11-13T13:53:05.868Z,-143.59
2023-11-13T13:55:35.007Z,-143.59
2023-11-13T13:58:03.191Z,-143.59
2023-11-13T14:00:37.490Z,-143.59
2023-11-13T14:03:12.393Z,-143.59
2023-11-13T14:05:44.579Z,-143.59
2023-11-13T14:08:17.668Z,-143.59
2023-11-13T14:10:52.333Z,-143.59
2023-11-13T14:13:26.609Z,-143.59
2023-11-13T14:16:04.771Z,-143.59
2023-11-13T14:18:40.359Z,-143.59
2023-11-13T14:21:15.295Z,-143.59
2023-11-13T14:23:44.174Z,-143.59
2023-11-13T14:26:16.382Z,-143.59
2023-11-13T14:28:44.256Z,-143.59
2023-11-13T14:31:11.609Z,-143.59
2023-11-13T14:33:40.317Z,-143.59
2023-11-13T14:36:10.649Z,-143.59
2023-11-13T14:38:39.200Z,-143.59
2023-11-13T14:41:06.641Z,-143.59
2023-11-13T14:43:33.833Z,-143.59
2023-11-13T14:46:03.902Z,-143.59
2023-11-13T14:48:32.539Z,-143.59
2023-11-13T14:51:00.029Z,-143.59
2023-11-13T14:53:27.130Z,-143.59
2023-11-13T14:55:54.336Z,-143.59
2023-11-13T14:58:21.787Z,-143.59
2023-11-13T15:00:50.401Z,-143.59
2023-11-13T15:03:17.748Z,-143.59
2023-11-13T15:05:45.325Z,-143.59
2023-11-13T15:08:13.571Z,-143.59
2023-11-13T15:10:40.757Z,-143.59
2023-11-13T15:13:09.785Z,-143.59
2023-11-13T15:15:37.082Z,-143.59
2023-11-13T15:18:05.469Z,-143.59
2023-11-13T15:20:33.182Z,-143.59
2023-11-13T15:23:14.626Z,-143.59
2023-11-13T15:25:51.860Z,-143.59
2023-11-13T15:28:20.690Z,-143.59
2023-11-13T15:30:48.818Z,-143.59
2023-11-13T15:33:17.349Z,-143.59
2023-11-13T15:35:44.557Z,-143.59
2023-11-13T15:38:11.937Z,-143.59
2023-11-13T15:40:39.124Z,-143.59
2023-11-13T15:43:08.113Z,-143.59
2023-11-13T15:45:35.313Z,-143.59
2023-11-13T15:48:02.512Z,-143.59
2023-11-13T15:50:33.105Z,-143.59
2023-11-13T15:53:00.270Z,-143.59
2023-11-13T15:55:27.504Z,-143.59
2023-11-13T15:57:54.885Z,-143.59
2023-11-13T16:00:24.320Z,-143.59
2023-11-13T16:02:51.590Z,-143.59
2023-11-13T16:05:20.303Z,-143.59
2023-11-13T16:07:49.293Z,-143.59
2023-11-13T16:10:17.047Z,-143.59
2023-11-13T16:12:47.423Z,-143.59
2023-11-13T16:15:14.667Z,-143.59
2023-11-13T16:17:42.167Z,-143.59
2023-11-13T16:20:11.459Z,-143.59
2023-11-13T16:22:39.469Z,-143.59
2023-11-13T16:25:09.130Z,-143.59
2023-11-13T16:27:38.339Z,-143.59
2023-11-13T16:30:08.527Z,-143.59
2023-11-13T16:32:36.928Z,-143.59
2023-11-13T16:35:05.981Z,-143.59
2023-11-13T16:37:33.686Z,-143.59
2023-11-13T16:40:01.500Z,-143.59
2023-11-13T16:42:32.177Z,-143.59
2023-11-13T16:44:59.275Z,-143.59
2023-11-13T16:47:26.832Z,-143.59
2023-11-13T16:49:54.056Z,-143.59
2023-11-13T16:52:21.351Z,-143.59
2023-11-13T16:54:48.617Z,-143.59
2023-11-13T16:57:15.825Z,-143.59
2023-11-13T16:59:44.128Z,-143.59
2023-11-13T17:02:11.418Z,-143.59
2023-11-13T17:04:38.725Z,-143.59
2023-11-13T17:07:06.089Z,-143.59
2023-11-13T17:09:33.289Z,-143.59
2023-11-13T17:12:00.772Z,-143.59
2023-11-13T17:14:28.039Z,-143.59
2023-11-13T17:16:55.494Z,-143.59
2023-11-13T17:19:22.778Z,-143.59
2023-11-13T17:21:50.490Z,-143.59
2023-11-13T17:24:18.068Z,-143.59
2023-11-13T17:26:45.432Z,-143.59
2023-11-13T17:29:12.636Z,-143.59
2023-11-13T17:31:40.310Z,-143.59
2023-11-13T17:34:08.403Z,-143.59
2023-11-13T17:36:35.526Z,-143.59
2023-11-13T17:39:02.744Z,-143.59
2023-11-13T17:41:30.470Z,-143.59
2023-11-13T17:43:58.967Z,-143.59
2023-11-13T17:46:26.345Z,-143.59
2023-11-13T17:48:53.615Z,-143.59
2023-11-13T17:51:21.856Z,-143.59
2023-11-13T17:53:49.257Z,-143.59
2023-11-13T17:56:16.471Z,-143.59
2023-11-13T17:58:43.668Z,-143.59
2023-11-13T18:01:11.771Z,-143.59
2023-11-13T18:03:39.248Z,-143.59
2023-11-13T18:06:06.849Z,-143.59
2023-11-13T18:08:35.051Z,-143.59
2023-11-13T18:11:04.353Z,-143.59
2023-11-13T18:13:33.555Z,-143.59
2023-11-13T18:16:01.427Z,-143.59
2023-11-13T18:18:30.832Z,-143.59
2023-11-13T18:20:58.491Z,-143.59
2023-11-13T18:23:25.653Z,-143.59
2023-11-13T18:25:56.969Z,-143.59
2023-11-13T18:28:25.794Z,-143.59
2023-11-13T18:30:57.790Z,-143.59
2023-11-13T18:33:32.241Z,-143.59
2023-11-13T18:35:59.770Z,-143.59
2023-11-13T18:38:27.408Z,-143.59
2023-11-13T18:40:54.890Z,-143.59
2023-11-13T18:43:22.757Z,-143.59
2023-11-13T18:45:53.409Z,-143.59
2023-11-13T18:48:21.238Z,-143.59
2023-11-13T18:50:48.956Z,-143.59
2023-11-13T18:53:17.083Z,-143.59
2023-11-13T18:55:46.913Z,-143.59
2023-11-13T18:58:14.854Z,-143.59
2023-11-13T19:00:42.057Z,-143.59
2023-11-13T19:03:09.886Z,-143.59
2023-11-13T19:05:37.407Z,-143.59
2023-11-13T19:08:05.434Z,-143.59
2023-11-13T19:10:32.742Z,-143.59
2023-11-13T19:13:03.279Z,-143.59
2023-11-13T19:15:30.804Z,-143.59
2023-11-13T19:17:58.401Z,-143.59
2023-11-13T19:20:28.970Z,-143.59
2023-11-13T19:22:58.729Z,-143.59
2023-11-13T19:25:26.695Z,-143.59
2023-11-13T19:27:54.036Z,-143.59
2023-11-13T19:30:21.549Z,-143.59
2023-11-13T19:32:55.871Z,-143.59
2023-11-13T19:35:28.905Z,-143.59
2023-11-13T19:37:58.043Z,-143.59
2023-11-13T19:40:25.920Z,-143.59
2023-11-13T19:42:53.226Z,-143.59
2023-11-13T19:45:22.459Z,-143.59
2023-11-13T19:47:49.904Z,-143.59
2023-11-13T19:50:18.515Z,-143.59
2023-11-13T19:52:47.935Z,-143.59
2023-11-13T19:55:16.522Z,-143.59
2023-11-13T19:57:45.680Z,-143.59
2023-11-13T20:00:18.049Z,-143.59
2023-11-13T20:02:47.886Z,-143.59
2023-11-13T20:05:15.419Z,-143.59
2023-11-13T20:07:42.805Z,-143.59
2023-11-13T20:10:11.501Z,-143.59
2023-11-13T20:12:39.360Z,-143.59
2023-11-13T20:15:08.348Z,-143.59
2023-11-13T20:17:36.148Z,-143.59
2023-11-13T20:20:03.922Z,-143.59
2023-11-13T20:22:31.413Z,-143.59
2023-11-13T20:24:59.089Z,-143.59
2023-11-13T20:27:26.357Z,-143.59
2023-11-13T20:30:03.223Z,-143.59
2023-11-13T20:32:34.294Z,-143.59
2023-11-13T20:35:02.210Z,-143.59
2023-11-13T20:37:31.514Z,-143.59
2023-11-13T20:39:59.414Z,-143.59
2023-11-13T20:42:27.275Z,-143.59
2023-11-13T20:44:54.655Z,-143.59
2023-11-13T20:47:22.143Z,-143.59
2023-11-13T20:49:51.102Z,-143.59
2023-11-13T20:52:18.938Z,-143.59
2023-11-13T20:54:46.226Z,-143.59
2023-11-13T20:57:14.612Z,-143.59
2023-11-13T20:59:42.151Z,-143.59
2023-11-13T21:02:10.779Z,-143.59
2023-11-13T21:04:41.849Z,-143.59
2023-11-13T21:07:09.320Z,-143.59
2023-11-13T21:09:36.457Z,-143.59
2023-11-13T21:12:05.139Z,-143.59
2023-11-13T21:14:32.299Z,-143.59
2023-11-13T21:16:59.453Z,-143.59
2023-11-13T21:19:26.685Z,-143.59
2023-11-13T21:21:53.909Z,-143.59
2023-11-13T21:24:21.973Z,-143.59
2023-11-13T21:26:49.993Z,-143.59
2023-11-13T21:29:18.067Z,-143.59
2023-11-13T21:31:45.495Z,-143.59
2023-11-13T21:34:12.742Z,-143.59
2023-11-13T21:36:39.938Z,-143.59
2023-11-13T21:39:09.378Z,-143.59
2023-11-13T21:41:36.692Z,-143.59
2023-11-13T21:44:04.063Z,-143.59
2023-11-13T21:46:31.272Z,-143.59
2023-11-13T21:48:58.588Z,-143.59
2023-11-13T21:51:25.752Z,-143.59
2023-11-13T21:53:53.138Z,-143.59
2023-11-13T21:56:23.117Z,-143.59
2023-11-13T21:58:50.715Z,-143.59
2023-11-13T22:01:17.945Z,-143.59
2023-11-13T22:03:45.184Z,-143.59
2023-11-13T22:06:12.715Z,-143.59
2023-11-13T22:08:39.864Z,-143.59
2023-11-13T22:11:07.607Z,-143.59
2023-11-13T22:13:37.181Z,-143.59
2023-11-13T22:16:04.800Z,-143.59
2023-11-13T22:18:32.089Z,-143.59
2023-11-13T22:21:03.533Z,-143.59
2023-11-13T22:23:33.113Z,-143.59
2023-11-13T22:26:00.589Z,-143.59
2023-11-13T22:28:28.017Z,-143.59
2023-11-13T22:30:55.607Z,-143.59
2023-11-13T22:33:24.367Z,-143.59
2023-11-13T22:35:51.520Z,-143.59
2023-11-13T22:38:18.741Z,-143.59
2023-11-13T22:40:47.643Z,-143.59
2023-11-13T22:43:14.968Z,-143.59
2023-11-13T22:45:42.229Z,-143.59
2023-11-13T22:48:10.256Z,-143.59
2023-11-13T22:50:38.014Z,-143.59
2023-11-13T22:53:05.261Z,-143.59
2023-11-13T22:55:32.520Z,-143.59
2023-11-13T22:57:59.936Z,-143.59
2023-11-13T23:00:27.244Z,-143.59
2023-11-13T23:02:57.563Z,-143.59
2023-11-13T23:05:24.989Z,-143.59
2023-11-13T23:07:52.689Z,-143.59
2023-11-13T23:10:19.974Z,-143.59
2023-11-13T23:12:47.098Z,-143.59
2023-11-13T23:15:14.298Z,-143.59
2023-11-13T23:17:41.907Z,-143.59
2023-11-13T23:20:13.067Z,-143.59
2023-11-13T23:22:40.608Z,-143.59
2023-11-13T23:25:09.735Z,-143.59
2023-11-13T23:27:37.557Z,-143.59
2023-11-13T23:30:09.724Z,-143.59
2023-11-13T23:32:37.792Z,-143.59
2023-11-13T23:35:07.777Z,-143.59
2023-11-13T23:37:35.276Z,-143.59
2023-11-13T23:40:02.426Z,-143.59
2023-11-13T23:42:31.070Z,-143.59
2023-11-13T23:45:00.499Z,-143.59
2023-11-13T23:47:30.815Z,-143.59
2023-11-13T23:49:58.243Z,-143.59
2023-11-13T23:52:25.526Z,-143.59
2023-11-13T23:54:52.730Z,-143.59
2023-11-13T23:57:20.316Z,-143.59
2023-11-13T23:59:48.044Z,-143.59
